sensor_id;sensor_type;location;lat;lon;timestamp;temperature;humidity
27896;DHT22;15241;48.374;10.876;2023-01-16T00:02:11;3.00;99.90
27896;DHT22;15241;48.374;10.876;2023-01-16T00:07:10;3.10;99.90
27896;DHT22;15241;48.374;10.876;2023-01-16T00:12:09;3.10;99.90
27896;DHT22;15241;48.374;10.876;2023-01-16T00:17:08;3.00;99.90
27896;DHT22;15241;48.374;10.876;2023-01-16T00:22:07;3.00;99.90
27896;DHT22;15241;48.374;10.876;2023-01-16T00:27:05;3.00;99.90
27896;DHT22;15241;48.374;10.876;2023-01-16T00:32:04;3.00;99.90
27896;DHT22;15241;48.374;10.876;2023-01-16T00:37:03;3.00;99.90
27896;DHT22;15241;48.374;10.876;2023-01-16T00:42:02;3.00;99.90
27896;DHT22;15241;48.374;10.876;2023-01-16T00:47:01;3.00;99.90
27896;DHT22;15241;48.374;10.876;2023-01-16T00:52:00;2.90;99.90
27896;DHT22;15241;48.374;10.876;2023-01-16T00:56:59;3.00;99.90
27896;DHT22;15241;48.374;10.876;2023-01-16T01:07:05;3.00;99.90
27896;DHT22;15241;48.374;10.876;2023-01-16T01:12:06;3.00;99.90
27896;DHT22;15241;48.374;10.876;2023-01-16T01:17:05;2.90;99.90
27896;DHT22;15241;48.374;10.876;2023-01-16T01:22:04;3.00;99.90
27896;DHT22;15241;48.374;10.876;2023-01-16T01:27:03;3.00;99.90
27896;DHT22;15241;48.374;10.876;2023-01-16T01:32:02;2.90;99.90
27896;DHT22;15241;48.374;10.876;2023-01-16T01:37:02;3.00;99.90
27896;DHT22;15241;48.374;10.876;2023-01-16T01:42:01;3.10;99.90
27896;DHT22;15241;48.374;10.876;2023-01-16T01:47:00;3.20;99.90
27896;DHT22;15241;48.374;10.876;2023-01-16T01:52:02;3.10;99.90
27896;DHT22;15241;48.374;10.876;2023-01-16T01:57:04;3.10;99.90
27896;DHT22;15241;48.374;10.876;2023-01-16T02:02:05;3.10;99.90
27896;DHT22;15241;48.374;10.876;2023-01-16T02:07:07;3.10;99.90
27896;DHT22;15241;48.374;10.876;2023-01-16T02:12:09;3.20;99.90
27896;DHT22;15241;48.374;10.876;2023-01-16T02:17:10;3.20;99.90
27896;DHT22;15241;48.374;10.876;2023-01-16T02:33:25;3.20;99.90
27896;DHT22;15241;48.374;10.876;2023-01-16T02:38:29;3.30;99.90
27896;DHT22;15241;48.374;10.876;2023-01-16T02:43:32;3.20;99.90
27896;DHT22;15241;48.374;10.876;2023-01-16T02:48:36;3.20;99.90
27896;DHT22;15241;48.374;10.876;2023-01-16T02:53:39;3.10;99.90
27896;DHT22;15241;48.374;10.876;2023-01-16T02:58:40;3.20;99.90
27896;DHT22;15241;48.374;10.876;2023-01-16T03:03:42;3.20;99.90
27896;DHT22;15241;48.374;10.876;2023-01-16T03:08:43;3.10;99.90
27896;DHT22;15241;48.374;10.876;2023-01-16T03:13:53;3.10;99.90
27896;DHT22;15241;48.374;10.876;2023-01-16T03:18:56;3.10;99.90
27896;DHT22;15241;48.374;10.876;2023-01-16T03:23:57;3.00;99.90
27896;DHT22;15241;48.374;10.876;2023-01-16T03:29:05;3.00;99.90
27896;DHT22;15241;48.374;10.876;2023-01-16T03:34:09;3.00;99.90
27896;DHT22;15241;48.374;10.876;2023-01-16T03:39:10;3.00;99.90
27896;DHT22;15241;48.374;10.876;2023-01-16T03:44:12;3.00;99.90
27896;DHT22;15241;48.374;10.876;2023-01-16T03:49:15;2.90;99.90
27896;DHT22;15241;48.374;10.876;2023-01-16T03:59:25;2.80;99.90
27896;DHT22;15241;48.374;10.876;2023-01-16T04:04:27;2.80;99.90
27896;DHT22;15241;48.374;10.876;2023-01-16T04:09:31;2.80;99.90
27896;DHT22;15241;48.374;10.876;2023-01-16T04:14:31;2.70;99.90
27896;DHT22;15241;48.374;10.876;2023-01-16T04:19:32;2.60;99.90
27896;DHT22;15241;48.374;10.876;2023-01-16T04:29:38;2.60;99.90
27896;DHT22;15241;48.374;10.876;2023-01-16T04:34:37;2.50;99.90
27896;DHT22;15241;48.374;10.876;2023-01-16T04:39:36;2.40;99.90
27896;DHT22;15241;48.374;10.876;2023-01-16T04:44:35;2.40;99.90
27896;DHT22;15241;48.374;10.876;2023-01-16T04:49:34;2.40;99.90
27896;DHT22;15241;48.374;10.876;2023-01-16T04:54:33;2.30;99.90
27896;DHT22;15241;48.374;10.876;2023-01-16T04:59:32;2.40;99.90
27896;DHT22;15241;48.374;10.876;2023-01-16T05:04:31;2.20;99.90
27896;DHT22;15241;48.374;10.876;2023-01-16T05:09:30;2.20;99.90
27896;DHT22;15241;48.374;10.876;2023-01-16T05:14:29;2.20;99.90
27896;DHT22;15241;48.374;10.876;2023-01-16T05:19:28;2.20;99.90
27896;DHT22;15241;48.374;10.876;2023-01-16T05:24:27;2.20;99.90
27896;DHT22;15241;48.374;10.876;2023-01-16T05:29:26;2.20;99.90
27896;DHT22;15241;48.374;10.876;2023-01-16T05:34:24;2.20;99.90
27896;DHT22;15241;48.374;10.876;2023-01-16T05:39:23;2.20;99.90
27896;DHT22;15241;48.374;10.876;2023-01-16T05:49:28;2.10;99.90
27896;DHT22;15241;48.374;10.876;2023-01-16T05:54:27;2.10;99.90
27896;DHT22;15241;48.374;10.876;2023-01-16T05:59:26;2.00;99.90
27896;DHT22;15241;48.374;10.876;2023-01-16T06:04:25;2.00;99.90
27896;DHT22;15241;48.374;10.876;2023-01-16T06:09:26;2.00;99.90
27896;DHT22;15241;48.374;10.876;2023-01-16T06:14:25;2.00;99.90
27896;DHT22;15241;48.374;10.876;2023-01-16T06:19:24;2.00;99.90
27896;DHT22;15241;48.374;10.876;2023-01-16T06:24:23;2.00;99.90
27896;DHT22;15241;48.374;10.876;2023-01-16T06:29:22;2.00;99.90
27896;DHT22;15241;48.374;10.876;2023-01-16T06:34:21;1.90;99.90
27896;DHT22;15241;48.374;10.876;2023-01-16T06:39:20;2.00;99.90
27896;DHT22;15241;48.374;10.876;2023-01-16T06:44:19;1.90;99.90
27896;DHT22;15241;48.374;10.876;2023-01-16T06:49:18;1.90;99.90
27896;DHT22;15241;48.374;10.876;2023-01-16T06:54:16;1.90;99.90
27896;DHT22;15241;48.374;10.876;2023-01-16T06:59:15;1.80;99.90
27896;DHT22;15241;48.374;10.876;2023-01-16T07:09:21;1.90;99.90
27896;DHT22;15241;48.374;10.876;2023-01-16T07:14:21;2.00;99.90
27896;DHT22;15241;48.374;10.876;2023-01-16T07:19:21;2.00;99.90
27896;DHT22;15241;48.374;10.876;2023-01-16T07:24:22;2.00;99.90
27896;DHT22;15241;48.374;10.876;2023-01-16T07:34:29;2.00;99.90
27896;DHT22;15241;48.374;10.876;2023-01-16T07:39:28;2.00;99.90
27896;DHT22;15241;48.374;10.876;2023-01-16T07:44:27;2.00;99.90
27896;DHT22;15241;48.374;10.876;2023-01-16T07:49:26;2.00;99.90
27896;DHT22;15241;48.374;10.876;2023-01-16T07:54:24;2.10;99.90
27896;DHT22;15241;48.374;10.876;2023-01-16T07:59:24;2.30;99.90
27896;DHT22;15241;48.374;10.876;2023-01-16T08:04:22;2.40;99.90
27896;DHT22;15241;48.374;10.876;2023-01-16T08:09:21;2.50;99.90
27896;DHT22;15241;48.374;10.876;2023-01-16T08:14:20;2.60;99.90
27896;DHT22;15241;48.374;10.876;2023-01-16T08:19:19;2.80;99.90
27896;DHT22;15241;48.374;10.876;2023-01-16T08:24:18;3.00;99.90
27896;DHT22;15241;48.374;10.876;2023-01-16T08:29:17;3.10;99.90
27896;DHT22;15241;48.374;10.876;2023-01-16T08:34:17;3.40;99.90
27896;DHT22;15241;48.374;10.876;2023-01-16T08:39:16;3.60;99.90
27896;DHT22;15241;48.374;10.876;2023-01-16T08:44:15;3.80;99.90
27896;DHT22;15241;48.374;10.876;2023-01-16T08:49:15;3.90;99.90
27896;DHT22;15241;48.374;10.876;2023-01-16T08:54:14;4.00;99.90
27896;DHT22;15241;48.374;10.876;2023-01-16T08:59:13;4.10;99.90
27896;DHT22;15241;48.374;10.876;2023-01-16T09:04:11;4.20;99.90
27896;DHT22;15241;48.374;10.876;2023-01-16T09:09:10;4.30;99.90
27896;DHT22;15241;48.374;10.876;2023-01-16T09:14:09;4.50;99.90
27896;DHT22;15241;48.374;10.876;2023-01-16T09:19:08;4.70;99.90
27896;DHT22;15241;48.374;10.876;2023-01-16T09:24:08;4.90;99.90
27896;DHT22;15241;48.374;10.876;2023-01-16T09:29:07;5.10;99.90
27896;DHT22;15241;48.374;10.876;2023-01-16T09:34:06;5.40;99.90
27896;DHT22;15241;48.374;10.876;2023-01-16T09:39:05;5.50;99.90
27896;DHT22;15241;48.374;10.876;2023-01-16T09:44:06;5.70;99.90
27896;DHT22;15241;48.374;10.876;2023-01-16T09:54:18;6.20;99.90
27896;DHT22;15241;48.374;10.876;2023-01-16T09:59:24;6.30;99.90
27896;DHT22;15241;48.374;10.876;2023-01-16T10:04:25;6.50;99.90
27896;DHT22;15241;48.374;10.876;2023-01-16T10:09:28;6.60;99.90
27896;DHT22;15241;48.374;10.876;2023-01-16T10:14:35;6.80;99.90
27896;DHT22;15241;48.374;10.876;2023-01-16T10:19:43;7.10;99.90
27896;DHT22;15241;48.374;10.876;2023-01-16T10:24:49;7.30;99.90
27896;DHT22;15241;48.374;10.876;2023-01-16T10:29:52;7.50;99.90
27896;DHT22;15241;48.374;10.876;2023-01-16T10:34:55;7.70;99.90
27896;DHT22;15241;48.374;10.876;2023-01-16T10:39:56;7.80;99.90
27896;DHT22;15241;48.374;10.876;2023-01-16T10:45:10;8.70;99.90
27896;DHT22;15241;48.374;10.876;2023-01-16T10:50:11;8.80;99.90
27896;DHT22;15241;48.374;10.876;2023-01-16T10:55:10;8.80;99.90
27896;DHT22;15241;48.374;10.876;2023-01-16T11:00:14;9.80;99.90
27896;DHT22;15241;48.374;10.876;2023-01-16T11:05:25;10.40;99.90
27896;DHT22;15241;48.374;10.876;2023-01-16T11:10:24;10.40;99.90
27896;DHT22;15241;48.374;10.876;2023-01-16T11:15:24;9.90;99.90
27896;DHT22;15241;48.374;10.876;2023-01-16T11:20:28;9.50;99.90
27896;DHT22;15241;48.374;10.876;2023-01-16T11:25:28;8.90;99.90
27896;DHT22;15241;48.374;10.876;2023-01-16T11:30:30;8.40;99.90
27896;DHT22;15241;48.374;10.876;2023-01-16T11:35:32;8.10;99.90
27896;DHT22;15241;48.374;10.876;2023-01-16T11:40:34;8.00;99.90
27896;DHT22;15241;48.374;10.876;2023-01-16T11:45:33;8.00;99.90
27896;DHT22;15241;48.374;10.876;2023-01-16T11:50:35;8.40;99.90
27896;DHT22;15241;48.374;10.876;2023-01-16T11:55:38;8.60;99.90
27896;DHT22;15241;48.374;10.876;2023-01-16T12:00:46;8.60;99.90
27896;DHT22;15241;48.374;10.876;2023-01-16T12:05:51;8.50;99.90
27896;DHT22;15241;48.374;10.876;2023-01-16T12:10:55;8.20;99.90
27896;DHT22;15241;48.374;10.876;2023-01-16T12:16:12;7.70;99.90
27896;DHT22;15241;48.374;10.876;2023-01-16T12:21:21;7.90;99.90
27896;DHT22;15241;48.374;10.876;2023-01-16T12:26:23;7.70;99.90
27896;DHT22;15241;48.374;10.876;2023-01-16T12:31:38;7.30;99.90
27896;DHT22;15241;48.374;10.876;2023-01-16T12:36:41;7.10;99.90
27896;DHT22;15241;48.374;10.876;2023-01-16T12:41:43;7.10;99.90
27896;DHT22;15241;48.374;10.876;2023-01-16T12:46:46;7.10;99.90
27896;DHT22;15241;48.374;10.876;2023-01-16T12:51:52;7.00;99.90
27896;DHT22;15241;48.374;10.876;2023-01-16T12:57:02;7.20;99.90
27896;DHT22;15241;48.374;10.876;2023-01-16T13:02:14;7.10;99.90
27896;DHT22;15241;48.374;10.876;2023-01-16T13:07:03;7.00;99.90
27896;DHT22;15241;48.374;10.876;2023-01-16T13:12:05;7.00;99.90
27896;DHT22;15241;48.374;10.876;2023-01-16T13:17:07;7.00;99.90
27896;DHT22;15241;48.374;10.876;2023-01-16T13:22:10;6.90;99.90
27896;DHT22;15241;48.374;10.876;2023-01-16T13:27:13;6.90;99.90
27896;DHT22;15241;48.374;10.876;2023-01-16T13:32:18;6.90;99.90
27896;DHT22;15241;48.374;10.876;2023-01-16T13:42:48;6.80;99.90
27896;DHT22;15241;48.374;10.876;2023-01-16T13:47:48;6.80;99.90
27896;DHT22;15241;48.374;10.876;2023-01-16T13:52:47;6.60;99.90
27896;DHT22;15241;48.374;10.876;2023-01-16T13:57:49;6.60;99.90
27896;DHT22;15241;48.374;10.876;2023-01-16T14:03:01;6.70;99.90
27896;DHT22;15241;48.374;10.876;2023-01-16T14:08:18;6.50;99.90
27896;DHT22;15241;48.374;10.876;2023-01-16T14:13:24;6.50;99.90
27896;DHT22;15241;48.374;10.876;2023-01-16T14:18:26;6.40;99.90
27896;DHT22;15241;48.374;10.876;2023-01-16T14:23:29;6.10;99.90
27896;DHT22;15241;48.374;10.876;2023-01-16T14:28:28;6.20;99.90
27896;DHT22;15241;48.374;10.876;2023-01-16T14:33:28;6.10;99.90
27896;DHT22;15241;48.374;10.876;2023-01-16T14:38:29;6.00;99.90
27896;DHT22;15241;48.374;10.876;2023-01-16T14:43:31;6.00;99.90
27896;DHT22;15241;48.374;10.876;2023-01-16T14:48:37;6.10;99.90
27896;DHT22;15241;48.374;10.876;2023-01-16T14:53:36;5.90;99.90
27896;DHT22;15241;48.374;10.876;2023-01-16T14:58:39;5.60;99.90
27896;DHT22;15241;48.374;10.876;2023-01-16T15:03:39;5.90;99.90
27896;DHT22;15241;48.374;10.876;2023-01-16T15:08:40;6.00;99.90
27896;DHT22;15241;48.374;10.876;2023-01-16T15:13:40;6.00;99.90
27896;DHT22;15241;48.374;10.876;2023-01-16T15:18:44;5.90;99.90
27896;DHT22;15241;48.374;10.876;2023-01-16T15:23:44;5.80;99.90
27896;DHT22;15241;48.374;10.876;2023-01-16T15:28:49;5.90;99.90
27896;DHT22;15241;48.374;10.876;2023-01-16T15:34:00;6.00;99.90
27896;DHT22;15241;48.374;10.876;2023-01-16T15:39:02;5.80;99.90
27896;DHT22;15241;48.374;10.876;2023-01-16T15:44:00;5.80;99.90
27896;DHT22;15241;48.374;10.876;2023-01-16T15:49:04;5.60;99.90
27896;DHT22;15241;48.374;10.876;2023-01-16T15:54:04;5.60;99.90
27896;DHT22;15241;48.374;10.876;2023-01-16T15:59:03;5.30;99.90
27896;DHT22;15241;48.374;10.876;2023-01-16T16:04:03;5.00;99.90
27896;DHT22;15241;48.374;10.876;2023-01-16T16:09:03;5.10;99.90
27896;DHT22;15241;48.374;10.876;2023-01-16T16:14:02;5.00;99.90
27896;DHT22;15241;48.374;10.876;2023-01-16T16:19:02;4.80;99.90
27896;DHT22;15241;48.374;10.876;2023-01-16T16:24:03;4.50;99.90
27896;DHT22;15241;48.374;10.876;2023-01-16T16:29:04;4.30;99.90
27896;DHT22;15241;48.374;10.876;2023-01-16T16:34:04;4.20;99.90
27896;DHT22;15241;48.374;10.876;2023-01-16T16:39:04;4.10;99.90
27896;DHT22;15241;48.374;10.876;2023-01-16T16:44:07;4.10;99.90
27896;DHT22;15241;48.374;10.876;2023-01-16T16:49:29;4.00;99.90
27896;DHT22;15241;48.374;10.876;2023-01-16T16:54:28;3.80;99.90
27896;DHT22;15241;48.374;10.876;2023-01-16T16:59:28;3.60;99.90
27896;DHT22;15241;48.374;10.876;2023-01-16T17:04:27;3.60;99.90
27896;DHT22;15241;48.374;10.876;2023-01-16T17:09:27;3.50;99.90
27896;DHT22;15241;48.374;10.876;2023-01-16T17:14:26;3.50;99.90
27896;DHT22;15241;48.374;10.876;2023-01-16T17:19:27;3.40;99.90
27896;DHT22;15241;48.374;10.876;2023-01-16T17:24:27;3.40;99.90
27896;DHT22;15241;48.374;10.876;2023-01-16T17:29:26;3.30;99.90
27896;DHT22;15241;48.374;10.876;2023-01-16T17:34:25;3.40;99.90
27896;DHT22;15241;48.374;10.876;2023-01-16T17:39:24;3.30;99.90
27896;DHT22;15241;48.374;10.876;2023-01-16T17:44:24;3.30;99.90
27896;DHT22;15241;48.374;10.876;2023-01-16T17:49:23;3.30;99.90
27896;DHT22;15241;48.374;10.876;2023-01-16T17:54:22;3.30;99.90
27896;DHT22;15241;48.374;10.876;2023-01-16T17:59:21;3.40;99.90
27896;DHT22;15241;48.374;10.876;2023-01-16T18:04:20;3.50;99.90
27896;DHT22;15241;48.374;10.876;2023-01-16T18:09:19;3.60;99.90
27896;DHT22;15241;48.374;10.876;2023-01-16T18:14:18;3.60;99.90
27896;DHT22;15241;48.374;10.876;2023-01-16T18:19:17;3.60;99.90
27896;DHT22;15241;48.374;10.876;2023-01-16T18:24:16;3.70;99.90
27896;DHT22;15241;48.374;10.876;2023-01-16T18:29:15;4.00;99.90
27896;DHT22;15241;48.374;10.876;2023-01-16T18:34:14;4.30;99.90
27896;DHT22;15241;48.374;10.876;2023-01-16T18:39:13;4.70;99.90
27896;DHT22;15241;48.374;10.876;2023-01-16T18:44:12;4.90;99.90
27896;DHT22;15241;48.374;10.876;2023-01-16T18:49:11;5.10;99.90
27896;DHT22;15241;48.374;10.876;2023-01-16T18:54:12;5.30;99.90
27896;DHT22;15241;48.374;10.876;2023-01-16T18:59:15;5.30;99.90
27896;DHT22;15241;48.374;10.876;2023-01-16T19:04:15;5.20;99.90
27896;DHT22;15241;48.374;10.876;2023-01-16T19:09:14;5.00;99.90
27896;DHT22;15241;48.374;10.876;2023-01-16T19:14:13;4.90;99.90
27896;DHT22;15241;48.374;10.876;2023-01-16T19:19:13;4.80;99.90
27896;DHT22;15241;48.374;10.876;2023-01-16T19:24:14;4.90;99.90
27896;DHT22;15241;48.374;10.876;2023-01-16T19:29:15;4.80;99.90
27896;DHT22;15241;48.374;10.876;2023-01-16T19:34:15;4.80;99.90
27896;DHT22;15241;48.374;10.876;2023-01-16T19:39:14;4.90;99.90
27896;DHT22;15241;48.374;10.876;2023-01-16T19:44:13;4.90;99.90
27896;DHT22;15241;48.374;10.876;2023-01-16T19:49:12;4.90;99.90
27896;DHT22;15241;48.374;10.876;2023-01-16T19:54:11;4.90;99.90
27896;DHT22;15241;48.374;10.876;2023-01-16T19:59:10;4.90;99.90
27896;DHT22;15241;48.374;10.876;2023-01-16T20:04:09;4.90;99.90
27896;DHT22;15241;48.374;10.876;2023-01-16T20:09:08;4.90;99.90
27896;DHT22;15241;48.374;10.876;2023-01-16T20:14:07;4.80;99.90
27896;DHT22;15241;48.374;10.876;2023-01-16T20:19:06;4.80;99.90
27896;DHT22;15241;48.374;10.876;2023-01-16T20:24:08;4.80;99.90
27896;DHT22;15241;48.374;10.876;2023-01-16T20:29:07;4.80;99.90
27896;DHT22;15241;48.374;10.876;2023-01-16T20:34:06;4.80;99.90
27896;DHT22;15241;48.374;10.876;2023-01-16T20:39:06;4.90;99.90
27896;DHT22;15241;48.374;10.876;2023-01-16T20:44:09;4.80;99.90
27896;DHT22;15241;48.374;10.876;2023-01-16T20:49:08;4.80;99.90
27896;DHT22;15241;48.374;10.876;2023-01-16T20:54:07;4.90;99.90
27896;DHT22;15241;48.374;10.876;2023-01-16T20:59:06;4.90;99.90
27896;DHT22;15241;48.374;10.876;2023-01-16T21:04:04;4.90;99.90
27896;DHT22;15241;48.374;10.876;2023-01-16T21:09:03;5.00;99.90
27896;DHT22;15241;48.374;10.876;2023-01-16T21:14:02;5.00;99.90
27896;DHT22;15241;48.374;10.876;2023-01-16T21:19:01;5.00;99.90
27896;DHT22;15241;48.374;10.876;2023-01-16T21:24:00;5.00;99.90
27896;DHT22;15241;48.374;10.876;2023-01-16T21:28:59;5.00;99.90
27896;DHT22;15241;48.374;10.876;2023-01-16T21:33:58;5.00;99.90
27896;DHT22;15241;48.374;10.876;2023-01-16T21:38:57;5.00;99.90
27896;DHT22;15241;48.374;10.876;2023-01-16T21:43:56;5.00;99.90
27896;DHT22;15241;48.374;10.876;2023-01-16T21:48:56;4.90;99.90
27896;DHT22;15241;48.374;10.876;2023-01-16T21:53:57;4.80;99.90
27896;DHT22;15241;48.374;10.876;2023-01-16T21:58:56;4.70;99.90
27896;DHT22;15241;48.374;10.876;2023-01-16T22:03:56;4.70;99.90
27896;DHT22;15241;48.374;10.876;2023-01-16T22:08:55;4.70;99.90
27896;DHT22;15241;48.374;10.876;2023-01-16T22:13:54;4.60;99.90
27896;DHT22;15241;48.374;10.876;2023-01-16T22:18:53;4.50;99.90
27896;DHT22;15241;48.374;10.876;2023-01-16T22:23:52;4.50;99.90
27896;DHT22;15241;48.374;10.876;2023-01-16T22:28:51;4.30;99.90
27896;DHT22;15241;48.374;10.876;2023-01-16T22:33:50;4.20;99.90
27896;DHT22;15241;48.374;10.876;2023-01-16T22:38:48;4.30;99.90
27896;DHT22;15241;48.374;10.876;2023-01-16T22:43:47;4.20;99.90
27896;DHT22;15241;48.374;10.876;2023-01-16T22:48:46;4.10;99.90
27896;DHT22;15241;48.374;10.876;2023-01-16T22:53:45;4.10;99.90
27896;DHT22;15241;48.374;10.876;2023-01-16T22:58:44;4.00;99.90
27896;DHT22;15241;48.374;10.876;2023-01-16T23:03:44;4.10;99.90
27896;DHT22;15241;48.374;10.876;2023-01-16T23:08:43;4.00;99.90
27896;DHT22;15241;48.374;10.876;2023-01-16T23:13:43;4.00;99.90
27896;DHT22;15241;48.374;10.876;2023-01-16T23:18:42;3.90;99.90
27896;DHT22;15241;48.374;10.876;2023-01-16T23:23:41;3.90;99.90
27896;DHT22;15241;48.374;10.876;2023-01-16T23:28:40;3.90;99.90
27896;DHT22;15241;48.374;10.876;2023-01-16T23:33:39;3.90;99.90
27896;DHT22;15241;48.374;10.876;2023-01-16T23:38:38;3.80;99.90
27896;DHT22;15241;48.374;10.876;2023-01-16T23:43:37;3.70;99.90
27896;DHT22;15241;48.374;10.876;2023-01-16T23:48:36;3.80;99.90
27896;DHT22;15241;48.374;10.876;2023-01-16T23:53:35;3.70;99.90
27896;DHT22;15241;48.374;10.876;2023-01-16T23:58:34;3.70;99.90
